Time;durP1;ratioP1;P1;durP2;ratioP2;P2;SDS_P1;SDS_P2;PMS_P1;PMS_P2;Temp;Humidity;BMP_temperature;BMP_pressure;BME280_temperature;BME280_humidity;BME280_pressure;Samples;Min_cycle;Max_cycle;Signal;HPM_P1;HPM_P2
2023/11/23 00:01:43;;;;;;;1.42;0.95;;;;;;;-4.37;59.92;99286.91;5027298;28;20040;-47
2023/11/23 00:04:09;;;;;;;3.13;0.88;;;;;;;-4.39;59.87;99286.03;5015751;28;20049;-47
2023/11/23 00:06:36;;;;;;;3.03;1.20;;;;;;;-4.66;60.26;99267.78;5030325;28;20045;-50
2023/11/23 00:09:05;;;;;;;2.10;0.73;;;;;;;-4.50;59.91;99276.53;5039971;28;20071;-47
2023/11/23 00:11:31;;;;;;;2.08;0.60;;;;;;;-4.49;60.17;99278.22;5053282;28;20111;-49
2023/11/23 00:13:56;;;;;;;1.48;0.70;;;;;;;-4.68;59.65;99245.72;5013684;28;20128;-47
2023/11/23 00:16:22;;;;;;;1.55;0.70;;;;;;;-4.55;59.67;99278.13;5018086;28;20033;-47
2023/11/23 00:18:48;;;;;;;1.38;0.75;;;;;;;-4.59;59.88;99271.25;5028182;28;20045;-47
2023/11/23 00:21:14;;;;;;;0.85;0.63;;;;;;;-4.79;59.69;99245.53;5027153;28;20073;-51
2023/11/23 00:23:41;;;;;;;1.75;0.77;;;;;;;-4.71;59.34;99264.28;5028293;28;20048;-50
2023/11/23 00:26:07;;;;;;;2.25;0.60;;;;;;;-4.62;59.70;99261.94;5048497;28;20102;-52
2023/11/23 00:28:34;;;;;;;1.17;0.60;;;;;;;-4.57;59.42;99255.25;5017641;28;20041;-49
2023/11/23 00:31:01;;;;;;;1.10;0.47;;;;;;;-4.66;58.48;99239.03;5027815;28;20045;-48
2023/11/23 00:33:28;;;;;;;1.73;0.95;;;;;;;-4.75;59.01;99240.53;4994241;28;20037;-49
2023/11/23 00:35:56;;;;;;;1.45;0.55;;;;;;;-4.75;58.69;99235.47;5016039;28;20030;-52
2023/11/23 00:38:22;;;;;;;1.25;0.70;;;;;;;-4.73;58.89;99228.75;5014169;28;20037;-52
2023/11/23 00:40:48;;;;;;;0.80;0.45;;;;;;;-4.68;58.40;99223.75;5025331;28;20426;-53
2023/11/23 00:43:13;;;;;;;0.93;0.40;;;;;;;-4.59;58.38;99211.25;5026218;28;20045;-46
2023/11/23 00:45:39;;;;;;;0.63;0.45;;;;;;;-4.61;58.29;99207.84;5026417;28;20591;-46
2023/11/23 00:48:05;;;;;;;1.63;0.60;;;;;;;-4.60;57.19;99201.94;5021596;28;20513;-49
2023/11/23 00:50:32;;;;;;;0.93;0.40;;;;;;;-4.62;56.98;99203.59;5025465;28;20171;-50
2023/11/23 00:52:59;;;;;;;1.40;0.40;;;;;;;-4.63;57.38;99201.88;5025080;28;20052;-49
2023/11/23 00:55:26;;;;;;;1.33;0.60;;;;;;;-4.73;57.21;99183.13;5015244;28;20037;-51
2023/11/23 00:57:52;;;;;;;0.55;0.40;;;;;;;-4.74;56.19;99206.75;5026425;28;20060;-50
2023/11/23 01:00:18;;;;;;;0.45;0.38;;;;;;;-5.08;56.71;99158.81;5027106;28;20052;-48
2023/11/23 01:02:45;;;;;;;1.35;0.63;;;;;;;-4.95;57.52;99197.88;5027081;28;20041;-47
2023/11/23 01:05:12;;;;;;;1.02;0.47;;;;;;;-5.02;56.62;99161.44;5025745;28;20040;-48
2023/11/23 01:07:38;;;;;;;1.90;0.73;;;;;;;-4.86;57.05;99181.16;5008903;28;20122;-50
2023/11/23 01:10:07;;;;;;;2.20;0.70;;;;;;;-4.78;57.20;99187.25;5010305;28;20446;-49
2023/11/23 01:12:33;;;;;;;;;;;;;;;-4.71;57.49;99178.91;5014522;28;20648;-48
2023/11/23 01:15:00;;;;;;;1.00;0.43;;;;;;;-4.69;58.17;99181.47;5027806;28;19944;-45
2023/11/23 01:17:27;;;;;;;1.80;0.80;;;;;;;-4.63;58.23;99176.53;5025849;28;20665;-48
2023/11/23 01:19:52;;;;;;;0.88;0.43;;;;;;;-4.61;59.18;99166.41;5026590;28;20049;-47
2023/11/23 01:22:18;;;;;;;0.68;0.50;;;;;;;-4.59;59.32;99163.06;5007792;28;20465;-45
2023/11/23 01:24:44;;;;;;;1.15;0.50;;;;;;;-4.64;58.79;99138.44;5025190;28;20037;-50
2023/11/23 01:27:11;;;;;;;0.40;0.40;;;;;;;-4.50;58.92;99157.31;5027309;28;20490;-47
2023/11/23 01:29:36;;;;;;;0.52;0.30;;;;;;;-4.49;58.16;99142.09;5026614;28;20521;-48
2023/11/23 01:32:03;;;;;;;5.15;0.40;;;;;;;-4.46;58.00;99143.84;5010110;28;20037;-51
2023/11/23 01:34:29;;;;;;;2.65;0.43;;;;;;;-4.39;57.76;99138.03;5026390;28;20521;-48
2023/11/23 01:36:55;;;;;;;0.80;0.55;;;;;;;-4.45;58.09;99132.88;5026381;28;20033;-48
2023/11/23 01:39:21;;;;;;;1.50;0.50;;;;;;;-4.66;57.52;99087.75;5026286;28;20464;-49
2023/11/23 01:41:47;;;;;;;1.88;0.60;;;;;;;-4.37;57.35;99121.16;5009903;28;20412;-51
2023/11/23 01:44:13;;;;;;;0.38;0.30;;;;;;;-4.38;57.57;99127.06;5026489;28;20533;-47
2023/11/23 01:46:38;;;;;;;0.88;0.50;;;;;;;-4.41;56.42;99127.88;5024748;28;20045;-50
2023/11/23 01:49:05;;;;;;;1.45;0.50;;;;;;;-4.45;56.69;99126.09;5001451;28;20128;-47
2023/11/23 01:51:31;;;;;;;0.63;0.30;;;;;;;-4.46;56.09;99126.94;5024938;28;20570;-45
2023/11/23 01:53:57;;;;;;;1.02;0.47;;;;;;;-4.47;55.40;99126.91;4994291;28;20041;-53
2023/11/23 01:56:25;;;;;;;0.68;0.30;;;;;;;-4.51;55.64;99115.03;5025387;28;20509;-46
2023/11/23 01:58:52;;;;;;;1.13;0.35;;;;;;;-4.64;55.62;99078.44;5040651;28;20046;-49
2023/11/23 02:01:18;;;;;;;1.00;0.50;;;;;;;-4.39;56.40;99113.50;5026259;28;20584;-47
2023/11/23 02:03:45;;;;;;;1.08;0.47;;;;;;;-4.37;56.16;99119.47;5025392;28;20037;-46
2023/11/23 02:06:12;;;;;;;2.08;0.70;;;;;;;-4.38;56.24;99120.31;5029482;28;20044;-48
2023/11/23 02:08:39;;;;;;;0.75;0.40;;;;;;;-4.34;55.51;99113.59;4997483;28;20228;-51
2023/11/23 02:11:06;;;;;;;0.88;0.40;;;;;;;-4.28;56.20;99108.59;5027195;28;20045;-47
2023/11/23 02:13:37;;;;;;;0.88;0.38;;;;;;;-4.25;56.06;99107.81;5028228;28;20052;-47
2023/11/23 02:16:03;;;;;;;1.27;0.55;;;;;;;-4.28;56.18;99095.91;5012685;28;20417;-51
2023/11/23 02:18:37;;;;;;;1.33;0.60;;;;;;;-4.35;55.57;99092.47;5030880;28;20060;-46
2023/11/23 02:21:04;;;;;;;0.43;0.30;;;;;;;-4.36;56.09;99084.81;5022413;28;20049;-47
2023/11/23 02:23:31;;;;;;;0.65;0.20;;;;;;;-4.32;55.55;99078.94;5011971;28;20108;-47
2023/11/23 02:25:57;;;;;;;1.25;0.43;;;;;;;-4.41;55.94;99063.59;5019860;28;20069;-47
2023/11/23 02:28:26;;;;;;;0.82;0.50;;;;;;;-4.40;55.72;99068.72;5016417;28;20054;-49
2023/11/23 02:30:52;;;;;;;1.17;0.47;;;;;;;-4.70;55.31;99041.16;5029929;28;20037;-54
2023/11/23 02:33:18;;;;;;;0.93;0.50;;;;;;;-4.44;55.53;99055.94;5044480;28;20060;-50
2023/11/23 02:35:45;;;;;;;0.38;0.30;;;;;;;-4.37;55.13;99047.59;5044957;28;20437;-48
2023/11/23 02:38:11;;;;;;;0.20;0.20;;;;;;;-4.35;55.07;99056.94;5014543;28;20045;-50
2023/11/23 02:40:37;;;;;;;1.27;0.63;;;;;;;-4.62;54.82;99045.53;5027492;28;20052;-48
2023/11/23 02:43:06;;;;;;;0.40;0.30;;;;;;;-4.83;55.36;99038.44;5011906;28;20064;-48
2023/11/23 02:45:32;;;;;;;0.52;0.45;;;;;;;-4.73;55.24;99035.22;5029676;28;20084;-49
2023/11/23 02:47:58;;;;;;;1.42;0.47;;;;;;;-4.89;55.12;99039.19;5030572;28;20061;-49
2023/11/23 02:50:24;;;;;;;1.60;0.60;;;;;;;-4.90;55.13;99032.41;5029632;28;20496;-48
2023/11/23 02:52:52;;;;;;;0.70;0.52;;;;;;;-4.88;55.35;99028.22;5029709;28;20037;-48
2023/11/23 02:55:19;;;;;;;0.55;0.40;;;;;;;-4.87;55.64;99032.47;5009490;28;20092;-47
2023/11/23 02:57:45;;;;;;;2.08;0.68;;;;;;;-4.74;55.30;99016.59;5026110;28;20076;-49
2023/11/23 03:00:12;;;;;;;1.20;0.60;;;;;;;-4.61;55.58;99012.59;5012636;28;20045;-44
2023/11/23 03:02:39;;;;;;;1.02;0.45;;;;;;;-4.75;55.31;99008.97;5012876;28;20500;-46
2023/11/23 03:05:05;;;;;;;2.40;0.68;;;;;;;-5.08;55.65;98958.63;5013565;28;20045;-50
2023/11/23 03:07:31;;;;;;;1.17;0.60;;;;;;;-4.88;55.31;99010.47;5028250;28;20128;-49
2023/11/23 03:09:57;;;;;;;0.85;0.40;;;;;;;-5.19;54.75;98999.00;5028373;28;20128;-47
2023/11/23 03:12:25;;;;;;;0.75;0.47;;;;;;;-5.12;54.58;99007.53;5010186;28;20041;-45
2023/11/23 03:14:51;;;;;;;0.98;0.45;;;;;;;-5.00;55.01;98995.06;5028252;28;20497;-48
2023/11/23 03:17:19;;;;;;;2.08;0.40;;;;;;;-4.87;54.54;98996.13;5028296;28;20037;-45
2023/11/23 03:19:44;;;;;;;1.33;0.40;;;;;;;-4.76;54.86;98984.44;5028269;28;20132;-45
2023/11/23 03:22:10;;;;;;;2.33;0.63;;;;;;;-4.65;55.11;98982.91;5012380;28;20127;-47
2023/11/23 03:24:36;;;;;;;2.55;0.65;;;;;;;-4.95;54.78;98974.84;5028862;28;20116;-47
2023/11/23 03:27:03;;;;;;;1.88;0.80;;;;;;;-4.98;55.12;98959.63;5027743;28;20394;-50
2023/11/23 03:29:29;;;;;;;1.15;0.63;;;;;;;-4.81;55.44;98951.41;5014250;28;20112;-47
2023/11/23 03:31:55;;;;;;;1.10;0.50;;;;;;;-4.73;55.15;98937.19;5028704;28;20504;-49
2023/11/23 03:34:21;;;;;;;1.00;0.50;;;;;;;-4.66;54.25;98938.13;5011022;28;20048;-48
2023/11/23 03:36:47;;;;;;;0.85;0.47;;;;;;;-4.87;54.61;98902.34;5028362;28;20045;-50
2023/11/23 03:39:13;;;;;;;0.75;0.47;;;;;;;-4.76;53.44;98936.28;5010113;28;20478;-57
2023/11/23 03:41:39;;;;;;;1.23;0.32;;;;;;;-5.07;53.96;98927.38;5027943;28;20080;-45
2023/11/23 03:44:05;;;;;;;0.57;0.40;;;;;;;-5.02;53.34;98923.22;5028676;28;20072;-47
2023/11/23 03:46:32;;;;;;;0.98;0.50;;;;;;;-4.96;53.56;98927.53;5019929;28;20041;-46
2023/11/23 03:48:58;;;;;;;1.85;0.45;;;;;;;-4.94;53.17;98920.81;5027664;28;20482;-45
2023/11/23 03:51:24;;;;;;;1.25;0.60;;;;;;;-5.05;54.08;98929.94;5028385;28;20089;-46
2023/11/23 03:53:50;;;;;;;2.70;0.75;;;;;;;-5.14;54.21;98885.06;5010774;28;20069;-48
2023/11/23 03:56:16;;;;;;;1.60;0.82;;;;;;;-4.94;53.65;98890.41;5029109;28;20037;-49
2023/11/23 03:58:42;;;;;;;2.53;0.82;;;;;;;-4.76;54.08;98919.38;5026795;28;20095;-45
2023/11/23 04:01:11;;;;;;;0.50;0.50;;;;;;;-4.80;53.53;98915.09;5026179;28;20410;-49
2023/11/23 04:03:41;;;;;;;1.45;0.68;;;;;;;-4.86;53.69;98912.47;5026599;28;20048;-50
2023/11/23 04:06:07;;;;;;;1.23;0.80;;;;;;;-4.95;54.32;98909.81;5021034;28;20045;-50
2023/11/23 04:08:32;;;;;;;1.13;0.80;;;;;;;-4.97;54.06;98896.25;5032698;28;20111;-47
2023/11/23 04:10:58;;;;;;;1.95;0.95;;;;;;;-4.91;54.28;98887.91;5027474;28;20513;-49
2023/11/23 04:13:24;;;;;;;1.70;0.93;;;;;;;-5.08;53.40;98899.50;5011273;28;20049;-48
2023/11/23 04:15:50;;;;;;;0.77;0.52;;;;;;;-5.36;53.11;98906.66;5027973;28;20034;-48
2023/11/23 04:18:16;;;;;;;0.57;0.35;;;;;;;-5.52;53.12;98889.50;5029469;28;20049;-50
2023/11/23 04:20:43;;;;;;;1.20;0.68;;;;;;;-5.88;52.99;98850.97;5024777;28;20037;-53
2023/11/23 04:23:11;;;;;;;1.95;0.90;;;;;;;-5.69;53.19;98885.84;5018336;28;20052;-53
2023/11/23 04:25:38;;;;;;;1.20;0.53;;;;;;;-5.57;53.32;98880.97;5019588;28;20164;-51
2023/11/23 04:28:04;;;;;;;1.27;0.68;;;;;;;-5.61;53.05;98880.09;5021537;28;20510;-50
2023/11/23 04:30:30;;;;;;;2.33;1.05;;;;;;;-5.60;52.70;98875.88;5028020;28;20056;-48
2023/11/23 04:32:56;;;;;;;1.20;0.55;;;;;;;-5.65;53.28;98865.66;5014846;28;20115;-50
2023/11/23 04:35:22;;;;;;;1.42;0.60;;;;;;;-5.76;53.09;98841.88;5027501;28;20132;-51
2023/11/23 04:37:48;;;;;;;1.75;1.08;;;;;;;-5.58;53.05;98870.00;5026983;28;20044;-49
2023/11/23 04:40:13;;;;;;;2.22;0.40;;;;;;;-5.48;52.97;98853.28;5026937;28;20048;-49
2023/11/23 04:42:41;;;;;;;1.85;0.75;;;;;;;-5.59;52.77;98858.16;5022849;28;20790;-48
2023/11/23 04:45:07;;;;;;;1.45;0.60;;;;;;;-5.45;53.13;98845.75;5027080;28;20045;-49
2023/11/23 04:47:33;;;;;;;1.13;0.73;;;;;;;-5.38;53.15;98826.41;5027156;28;20091;-49
2023/11/23 04:49:59;;;;;;;0.40;0.40;;;;;;;-5.27;53.11;98838.41;5027100;28;20045;-49
2023/11/23 04:52:25;;;;;;;0.45;0.25;;;;;;;-5.42;53.74;98837.31;5024960;28;20048;-47
2023/11/23 04:54:51;;;;;;;0.45;0.20;;;;;;;-5.70;54.69;98826.75;5026407;28;20047;-46
2023/11/23 04:57:17;;;;;;;3.03;0.52;;;;;;;-5.71;54.21;98822.56;5026237;28;20722;-47
2023/11/23 04:59:43;;;;;;;1.10;0.55;;;;;;;-5.70;54.36;98815.78;5009134;28;20091;-35
2023/11/23 05:02:09;;;;;;;0.55;0.40;;;;;;;-5.64;55.51;98836.13;5009742;28;20045;-35
2023/11/23 05:04:35;;;;;;;1.33;0.52;;;;;;;-5.68;55.24;98821.72;5026064;28;20037;-35
2023/11/23 05:07:01;;;;;;;1.23;0.40;;;;;;;-5.79;56.03;98830.81;5027157;28;20084;-36
2023/11/23 05:09:27;;;;;;;0.30;0.17;;;;;;;-6.02;55.66;98783.25;5012156;28;20045;-36
2023/11/23 05:11:53;;;;;;;0.68;0.40;;;;;;;-5.88;55.25;98803.72;5022741;28;20041;-36
2023/11/23 05:14:19;;;;;;;0.80;0.55;;;;;;;-5.83;55.45;98796.19;5026940;28;20556;-36
2023/11/23 05:16:46;;;;;;;2.13;0.60;;;;;;;-5.80;55.16;98786.09;5025633;28;20046;-37
2023/11/23 05:19:12;;;;;;;2.42;0.75;;;;;;;-5.80;55.19;98781.03;5057893;28;20072;-36
2023/11/23 05:21:38;;;;;;;1.40;0.60;;;;;;;-5.60;55.65;98798.22;5007399;28;20124;-35
2023/11/23 05:24:04;;;;;;;0.22;0.20;;;;;;;-5.46;54.72;98790.00;5007228;28;20137;-37
2023/11/23 05:26:30;;;;;;;0.45;0.35;;;;;;;-5.73;55.26;98767.66;5012809;28;20034;-36
2023/11/23 05:28:56;;;;;;;0.32;0.20;;;;;;;-5.67;54.81;98776.19;5009282;28;20087;-37
2023/11/23 05:31:22;;;;;;;1.27;0.55;;;;;;;-5.73;55.44;98770.19;5025912;28;20041;-37
2023/11/23 05:33:48;;;;;;;1.20;0.35;;;;;;;-5.70;56.06;98777.81;5008520;28;20052;-37
2023/11/23 05:36:15;;;;;;;0.40;0.20;;;;;;;-5.80;55.96;98779.34;5024262;28;20124;-36
2023/11/23 05:38:41;;;;;;;0.60;0.57;;;;;;;-6.19;56.10;98711.31;4992963;28;20171;-44
2023/11/23 05:41:06;;;;;;;2.05;0.68;;;;;;;-5.78;56.10;98771.78;5024084;28;20564;-35
2023/11/23 05:43:32;;;;;;;1.35;0.70;;;;;;;-5.83;56.13;98770.88;5025132;28;20047;-35
2023/11/23 05:45:58;;;;;;;1.55;0.43;;;;;;;-5.71;56.33;98769.41;5021668;28;20453;-36
2023/11/23 05:48:24;;;;;;;3.78;0.52;;;;;;;-5.79;56.65;98777.69;5027373;28;20405;-37
2023/11/23 05:50:50;;;;;;;1.65;0.60;;;;;;;-5.95;56.30;98768.16;5026280;28;20775;-37
2023/11/23 05:53:16;;;;;;;1.67;0.63;;;;;;;-5.85;56.34;98764.91;5058083;28;20043;-37
2023/11/23 05:55:42;;;;;;;0.70;0.40;;;;;;;-5.84;56.12;98774.22;5026065;28;20041;-37
2023/11/23 05:58:07;;;;;;;1.63;1.02;;;;;;;-5.98;57.36;98761.41;5026302;28;20045;-36
2023/11/23 06:00:33;;;;;;;0.77;0.45;;;;;;;-5.94;57.39;98759.75;5006249;28;20140;-36
2023/11/23 06:02:59;;;;;;;0.88;0.55;;;;;;;-5.98;57.04;98750.44;5022503;28;20072;-35
2023/11/23 06:05:25;;;;;;;0.82;0.65;;;;;;;-6.06;57.29;98741.03;5025171;28;20049;-36
2023/11/23 06:07:51;;;;;;;0.32;0.22;;;;;;;-5.98;57.27;98736.09;5022755;28;20038;-36
2023/11/23 06:10:17;;;;;;;3.67;0.80;;;;;;;-5.96;58.10;98731.91;5024560;28;20172;-37
2023/11/23 06:12:43;;;;;;;1.35;0.30;;;;;;;-6.21;57.71;98684.28;5026185;28;20132;-37
2023/11/23 06:15:09;;;;;;;0.98;0.47;;;;;;;-6.04;58.37;98713.22;5025100;28;20080;-38
2023/11/23 06:17:35;;;;;;;3.30;0.50;;;;;;;-6.12;58.86;98707.19;5041242;28;20052;-37
2023/11/23 06:20:03;;;;;;;2.08;0.80;;;;;;;-6.00;59.43;98702.31;5025745;28;20038;-36
2023/11/23 06:22:30;;;;;;;0.90;0.50;;;;;;;-6.20;58.26;98656.50;5024741;28;20049;-37
2023/11/23 06:24:56;;;;;;;1.38;0.70;;;;;;;-6.18;57.43;98718.09;5006950;28;20428;-37
2023/11/23 06:27:23;;;;;;;1.27;0.73;;;;;;;-6.33;57.75;98697.56;5046311;28;20042;-37
2023/11/23 06:29:49;;;;;;;1.98;0.90;;;;;;;-6.40;58.18;98690.75;5013929;28;20041;-35
2023/11/23 06:32:16;;;;;;;5.35;0.98;;;;;;;-6.40;57.86;98672.19;5024494;28;20054;-36
2023/11/23 06:34:43;;;;;;;1.23;0.82;;;;;;;-6.80;57.82;98595.69;5024727;28;20120;-35
2023/11/23 06:37:09;;;;;;;1.75;0.43;;;;;;;-6.36;57.94;98657.09;5025830;28;20037;-37
2023/11/23 06:39:36;;;;;;;0.82;0.60;;;;;;;-6.36;58.16;98651.19;5024973;28;20047;-38
2023/11/23 06:42:03;;;;;;;0.98;0.38;;;;;;;-6.31;58.34;98652.94;5024887;28;20044;-36
2023/11/23 06:44:29;;;;;;;0.55;0.47;;;;;;;-6.27;58.21;98634.47;5025534;28;20044;-38
2023/11/23 06:46:54;;;;;;;1.00;0.52;;;;;;;-6.19;58.59;98642.19;5025087;28;20532;-36
2023/11/23 06:49:20;;;;;;;1.02;0.63;;;;;;;-6.23;59.65;98635.38;5025901;28;20115;-38
2023/11/23 06:51:46;;;;;;;2.28;0.80;;;;;;;-6.34;58.45;98640.28;5028461;28;20516;-36
2023/11/23 06:54:12;;;;;;;1.83;0.50;;;;;;;-6.44;58.43;98618.22;5008965;28;20045;-36
2023/11/23 06:56:38;;;;;;;2.10;1.10;;;;;;;-6.49;58.34;98625.69;5011302;28;20040;-37
2023/11/23 06:59:05;;;;;;;2.08;1.25;;;;;;;-6.94;58.85;98557.59;5028014;28;20526;-36
2023/11/23 07:01:31;;;;;;;0.70;0.40;;;;;;;-6.62;58.76;98616.22;5029746;28;20029;-37
2023/11/23 07:03:57;;;;;;;1.23;0.38;;;;;;;-6.64;59.08;98620.41;5027088;28;20472;-35
2023/11/23 07:06:24;;;;;;;0.88;0.60;;;;;;;-6.58;59.16;98615.44;5025695;28;20041;-37
2023/11/23 07:08:50;;;;;;;1.38;0.60;;;;;;;-6.80;58.96;98564.56;5012787;28;20047;-37
2023/11/23 07:11:19;;;;;;;5.38;1.10;;;;;;;-6.60;58.73;98596.91;5028418;28;20056;-36
2023/11/23 07:13:47;;;;;;;1.43;0.70;;;;;;;-6.57;59.13;98591.88;5029094;28;20120;-37
2023/11/23 07:16:13;;;;;;;1.75;0.70;;;;;;;-6.51;59.11;98596.19;5028872;28;20294;-36
2023/11/23 07:18:39;;;;;;;0.93;0.73;;;;;;;-6.52;58.61;98587.75;5004258;28;20048;-37
2023/11/23 07:21:06;;;;;;;0.50;0.40;;;;;;;-6.64;58.76;98572.38;5028974;28;20053;-38
2023/11/23 07:23:32;;;;;;;1.52;0.60;;;;;;;-6.57;58.73;98571.66;5027424;28;20126;-36
2023/11/23 07:25:58;;;;;;;0.73;0.43;;;;;;;-6.54;58.67;98573.41;5018904;28;20065;-35
2023/11/23 07:28:27;;;;;;;1.52;0.65;;;;;;;-6.34;58.44;98568.63;5017970;28;20037;-37
2023/11/23 07:30:56;;;;;;;1.50;0.38;;;;;;;-6.06;58.34;98561.44;5023610;28;20041;-37
2023/11/23 07:33:29;;;;;;;1.20;0.55;;;;;;;-5.82;57.36;98562.56;5027591;28;20052;-36
2023/11/23 07:35:56;;;;;;;2.05;0.52;;;;;;;-5.94;57.44;98570.00;5010653;28;20211;-37
2023/11/23 07:38:22;;;;;;;1.15;0.55;;;;;;;-6.00;57.35;98553.91;5026025;28;20049;-37
2023/11/23 07:40:49;;;;;;;1.85;0.70;;;;;;;-6.06;57.46;98560.56;5027454;28;20068;-37
2023/11/23 07:43:16;;;;;;;1.05;0.43;;;;;;;-6.34;57.49;98526.50;5027937;28;20037;-37
2023/11/23 07:45:42;;;;;;;1.00;0.60;;;;;;;-6.17;57.51;98546.94;5024167;28;20037;-38
2023/11/23 07:48:13;;;;;;;0.57;0.38;;;;;;;-6.25;57.46;98530.81;5030489;28;20402;-36
2023/11/23 07:50:40;;;;;;;2.25;0.60;;;;;;;-6.33;57.70;98520.59;5028370;28;20119;-37
2023/11/23 07:53:07;;;;;;;0.75;0.60;;;;;;;-6.24;57.49;98517.34;5009777;28;20041;-36
2023/11/23 07:55:34;;;;;;;0.90;0.57;;;;;;;-6.32;58.14;98504.59;5007607;28;20524;-35
2023/11/23 07:58:00;;;;;;;0.47;0.40;;;;;;;-6.34;58.33;98490.25;5008930;28;20047;-36
2023/11/23 08:00:27;;;;;;;0.75;0.60;;;;;;;-6.33;58.48;98474.25;5024101;28;20044;-36
2023/11/23 08:02:54;;;;;;;1.55;0.65;;;;;;;-6.20;58.11;98463.44;5026296;28;20068;-36
2023/11/23 08:05:21;;;;;;;2.08;0.98;;;;;;;-6.15;58.19;98444.13;5027221;28;20045;-37
2023/11/23 08:07:50;;;;;;;1.63;0.77;;;;;;;-6.04;58.04;98445.09;5027848;28;20041;-36
2023/11/23 08:10:16;;;;;;;1.45;0.45;;;;;;;-5.85;57.91;98444.41;5027787;28;20037;-36
2023/11/23 08:12:43;;;;;;;2.22;1.00;;;;;;;-5.83;57.69;98441.91;5028154;28;20195;-36
2023/11/23 08:15:10;;;;;;;1.20;0.40;;;;;;;-5.76;57.23;98429.34;5027478;28;20128;-37
2023/11/23 08:17:36;;;;;;;4.25;1.08;;;;;;;-5.61;56.91;98411.78;5028333;28;20580;-36
2023/11/23 08:20:07;;;;;;;1.83;0.88;;;;;;;-5.42;56.23;98432.19;5025784;28;20073;-38
2023/11/23 08:22:35;;;;;;;3.17;0.88;;;;;;;-5.77;56.09;98392.22;5026509;28;20052;-37
2023/11/23 08:25:02;;;;;;;1.73;0.80;;;;;;;-5.60;56.65;98394.91;5010221;28;20053;-37
2023/11/23 08:27:31;;;;;;;1.83;0.47;;;;;;;-5.61;56.42;98390.69;5027452;28;20048;-38
2023/11/23 08:29:57;;;;;;;1.05;0.45;;;;;;;-5.51;56.03;98378.94;5037548;28;20075;-37
2023/11/23 08:32:23;;;;;;;2.65;0.80;;;;;;;-5.36;56.30;98381.59;5009747;28;20099;-37
2023/11/23 08:34:49;;;;;;;0.68;0.38;;;;;;;-5.38;55.68;98373.97;5028156;28;20056;-37
2023/11/23 08:37:16;;;;;;;0.98;0.57;;;;;;;-5.39;56.18;98348.66;5026304;28;20071;-37
2023/11/23 08:39:42;;;;;;;0.40;0.35;;;;;;;-5.67;55.76;98304.56;5026915;28;20544;-36
2023/11/23 08:42:10;;;;;;;2.13;0.70;;;;;;;-5.49;55.89;98324.09;5042570;28;20049;-37
2023/11/23 08:44:39;;;;;;;7.07;0.90;;;;;;;-5.27;56.12;98339.44;5026338;28;20048;-36
2023/11/23 08:47:05;;;;;;;0.73;0.50;;;;;;;-5.23;55.78;98336.09;5026568;28;20501;-37
2023/11/23 08:49:32;;;;;;;2.50;0.98;;;;;;;-5.31;56.28;98309.03;5027309;28;20775;-36
2023/11/23 08:51:58;;;;;;;4.47;0.63;;;;;;;-5.22;55.82;98309.09;5024248;28;20528;-37
2023/11/23 08:54:24;;;;;;;1.35;0.85;;;;;;;-5.36;55.65;98291.28;5024938;28;20064;-37
2023/11/23 08:56:53;;;;;;;3.35;0.93;;;;;;;-5.17;55.99;98294.75;5026431;28;20038;-36
2023/11/23 08:59:19;;;;;;;1.67;0.68;;;;;;;-5.11;55.75;98287.19;5025702;28;20050;-37
2023/11/23 09:01:48;;;;;;;1.13;0.65;;;;;;;-5.23;55.71;98274.44;5059272;28;20286;-36
2023/11/23 09:04:14;;;;;;;1.75;0.80;;;;;;;-5.03;55.38;98267.81;5027389;28;20042;-37
2023/11/23 09:06:41;;;;;;;0.98;0.60;;;;;;;-4.91;55.69;98262.78;5026081;28;20728;-37
2023/11/23 09:09:07;;;;;;;0.70;0.40;;;;;;;-4.76;55.10;98262.00;5007851;28;20042;-38
2023/11/23 09:11:34;;;;;;;0.85;0.60;;;;;;;-4.86;54.82;98242.53;5006504;28;20536;-38
2023/11/23 09:14:02;;;;;;;1.70;0.70;;;;;;;-4.85;54.81;98254.38;5026494;28;20072;-36
2023/11/23 09:16:29;;;;;;;0.82;0.75;;;;;;;-4.84;55.01;98249.31;5025973;28;20090;-36
2023/11/23 09:18:57;;;;;;;0.25;0.25;;;;;;;-5.08;54.89;98235.72;5027467;28;20037;-37
2023/11/23 09:21:24;;;;;;;0.93;0.60;;;;;;;-5.09;55.51;98241.59;5023613;28;20572;-36
2023/11/23 09:23:50;;;;;;;1.00;0.63;;;;;;;-5.38;55.20;98191.66;5026689;28;20045;-37
2023/11/23 09:26:16;;;;;;;0.70;0.50;;;;;;;-5.21;55.68;98214.53;5025229;28;20406;-37
2023/11/23 09:28:43;;;;;;;0.75;0.30;;;;;;;-5.15;55.35;98223.00;5023451;28;20090;-35
2023/11/23 09:31:09;;;;;;;1.48;0.52;;;;;;;-5.17;55.81;98195.97;5011132;28;20053;-37
2023/11/23 09:33:35;;;;;;;0.80;0.70;;;;;;;-5.35;55.89;98173.13;5046933;28;20123;-38
2023/11/23 09:36:03;;;;;;;2.13;0.70;;;;;;;-5.22;56.02;98188.34;5025575;28;20123;-36
2023/11/23 09:38:29;;;;;;;4.00;0.80;;;;;;;-5.23;55.72;98188.34;5027627;28;20064;-37
2023/11/23 09:40:58;;;;;;;0.88;0.82;;;;;;;-5.22;55.78;98170.63;5025448;28;20069;-38
2023/11/23 09:43:24;;;;;;;2.40;1.17;;;;;;;-5.28;55.95;98160.47;5024809;28;20044;-36
2023/11/23 09:45:50;;;;;;;1.83;0.50;;;;;;;-5.22;56.60;98144.44;5022818;28;20061;-36
2023/11/23 09:48:17;;;;;;;2.55;0.85;;;;;;;-5.16;55.69;98142.78;5023218;28;20687;-37
2023/11/23 09:50:45;;;;;;;1.20;0.60;;;;;;;-5.14;55.98;98137.75;5025975;28;20037;-37
2023/11/23 09:53:13;;;;;;;2.20;0.82;;;;;;;-5.07;55.76;98129.28;5026101;28;20065;-38
2023/11/23 09:55:40;;;;;;;2.47;1.30;;;;;;;-5.03;56.23;98120.03;5024175;28;20037;-38
2023/11/23 09:58:07;;;;;;;1.60;0.80;;;;;;;-5.06;56.16;98109.88;5026518;28;20056;-37
2023/11/23 10:00:35;;;;;;;1.63;1.00;;;;;;;-5.04;55.73;98096.38;5025031;28;20037;-36
2023/11/23 10:03:06;;;;;;;2.57;0.90;;;;;;;-5.10;55.78;98083.69;5025551;28;20471;-39
2023/11/23 10:05:33;;;;;;;2.45;1.02;;;;;;;-5.04;55.70;98093.84;5018229;28;20133;-36
2023/11/23 10:07:59;;;;;;;0.93;0.50;;;;;;;-5.12;55.87;98067.66;5024724;28;20473;-35
2023/11/23 10:10:27;;;;;;;1.08;0.85;;;;;;;-5.07;55.98;98060.91;5025300;28;20041;-37
2023/11/23 10:12:56;;;;;;;0.95;0.40;;;;;;;-5.26;55.40;98028.78;5025389;28;20072;-37
2023/11/23 10:15:24;;;;;;;4.95;1.27;;;;;;;-5.10;55.80;98048.25;5024612;28;20029;-38
2023/11/23 10:17:50;;;;;;;2.80;1.17;;;;;;;-4.97;56.12;98038.97;5026374;28;20041;-37
2023/11/23 10:20:15;;;;;;;1.60;0.80;;;;;;;-5.00;55.45;98028.81;5022767;28;20052;-36
2023/11/23 10:22:45;;;;;;;1.17;0.52;;;;;;;-5.03;55.43;98027.16;5025379;28;20599;-36
2023/11/23 10:25:29;;;;;;;2.17;1.17;;;;;;;-5.07;55.91;98017.84;5019805;28;20480;-37
2023/11/23 10:27:55;;;;;;;0.88;0.55;;;;;;;-5.17;55.88;98008.53;5029152;28;20071;-36
2023/11/23 10:30:24;;;;;;;1.55;0.70;;;;;;;-5.17;55.93;98000.94;5018045;28;20048;-36
2023/11/23 10:32:52;;;;;;;2.22;1.13;;;;;;;-5.40;55.63;97941.84;5028922;28;20045;-36
2023/11/23 10:35:19;;;;;;;1.42;0.90;;;;;;;-4.99;55.99;97985.75;5028935;28;20029;-36
2023/11/23 10:37:45;;;;;;;3.15;0.98;;;;;;;-4.83;55.42;97973.94;5029016;28;20095;-36
2023/11/23 10:40:11;;;;;;;1.85;0.90;;;;;;;-4.73;55.73;97955.31;5029049;28;20111;-35
2023/11/23 10:42:38;;;;;;;17.20;1.10;;;;;;;-4.59;55.43;97951.06;5028056;28;20141;-35
2023/11/23 10:45:05;;;;;;;1.40;0.57;;;;;;;-4.56;54.74;97943.47;5029451;28;20604;-37
2023/11/23 10:47:32;;;;;;;5.25;1.30;;;;;;;-4.74;54.55;97948.56;5028227;28;20837;-36
2023/11/23 10:50:00;;;;;;;3.55;0.98;;;;;;;-4.84;55.37;97945.19;5027721;28;20037;-36
2023/11/23 10:52:28;;;;;;;1.13;0.80;;;;;;;-4.89;55.04;97961.25;4997345;28;20124;-36
2023/11/23 10:54:54;;;;;;;0.68;0.55;;;;;;;-5.07;54.58;97949.44;5027729;28;20049;-37
2023/11/23 10:57:21;;;;;;;3.08;0.82;;;;;;;-5.16;54.89;97941.84;5027868;28;20071;-36
2023/11/23 10:59:47;;;;;;;5.53;1.05;;;;;;;-5.22;55.21;97936.78;5029094;28;20073;-37
2023/11/23 11:02:13;;;;;;;1.92;0.75;;;;;;;-5.22;55.81;97932.56;5028778;28;20041;-36
2023/11/23 11:04:40;;;;;;;1.85;0.60;;;;;;;-5.49;55.65;97889.50;5016199;28;21264;-36
2023/11/23 11:07:08;;;;;;;4.65;1.23;;;;;;;-5.26;55.56;97914.84;5029265;28;20041;-36
2023/11/23 11:09:34;;;;;;;1.23;0.82;;;;;;;-5.28;55.53;97921.59;5029524;28;20072;-37
2023/11/23 11:12:02;;;;;;;1.25;0.70;;;;;;;-5.40;56.28;97884.47;5028040;28;20047;-36
2023/11/23 11:14:36;;;;;;;1.95;0.85;;;;;;;-5.45;56.95;97882.78;4993899;28;20041;-37
2023/11/23 11:17:04;;;;;;;3.22;1.05;;;;;;;-5.49;57.11;97874.31;5044328;28;20048;-38
2023/11/23 11:19:47;;;;;;;2.10;0.98;;;;;;;-5.71;57.67;97858.31;5012800;28;20033;-37
2023/11/23 11:22:13;;;;;;;2.03;0.90;;;;;;;-5.66;59.84;97855.78;5020378;28;20073;-37
2023/11/23 11:24:40;;;;;;;1.52;0.50;;;;;;;-5.64;59.91;97846.50;5027615;28;20092;-37
2023/11/23 11:27:10;;;;;;;1.67;1.10;;;;;;;-5.91;60.05;97801.81;5016409;28;20043;-37
2023/11/23 11:29:36;;;;;;;1.05;0.60;;;;;;;-5.60;60.48;97833.84;5024624;28;20029;-37
2023/11/23 11:32:06;;;;;;;0.65;0.50;;;;;;;-5.68;60.63;97817.81;5027770;28;20068;-37